Time;durP1;ratioP1;P1;durP2;ratioP2;P2;SDS_P1;SDS_P2;PMS_P1;PMS_P2;Temp;Humidity;BMP_temperature;BMP_pressure;BME280_temperature;BME280_humidity;BME280_pressure;Samples;Min_cycle;Max_cycle;Signal;HPM_P1;HPM_P2
2022/11/20 00:01:57;;;;;;;;;;;;;;;4.13;100.00;97406.19;5121015;28;19938;-59
2022/11/20 00:04:24;;;;;;;;;;;;;;;3.94;100.00;97391.53;5119951;28;19920;-61
2022/11/20 00:06:51;;;;;;;;;;;;;;;3.86;100.00;97396.38;5121852;28;20505;-59
2022/11/20 00:09:18;;;;;;;;;;;;;;;3.74;100.00;97406.97;5122907;28;19995;-60
2022/11/20 00:11:44;;;;;;;;;;;;;;;3.57;100.00;97404.22;5122770;28;19970;-59
2022/11/20 00:14:10;;;;;;;;;;;;;;;3.59;100.00;97399.50;5120207;28;19992;-59
2022/11/20 00:16:37;;;;;;;;;;;;;;;3.55;100.00;97402.84;5119971;28;19924;-59
2022/11/20 00:19:03;;;;;;;;;;;;;;;3.74;100.00;97406.97;5119885;28;19996;-59
2022/11/20 00:21:30;;;;;;;;;;;;;;;3.75;100.00;97405.91;5120022;28;19974;-60
2022/11/20 00:23:58;;;;;;;;;;;;;;;3.68;100.00;97408.69;5114695;28;19931;-59
2022/11/20 00:26:26;;;;;;;;;;;;;;;3.67;100.00;97403.66;5120164;28;20014;-59
2022/11/20 00:28:53;;;;;;;;;;;;;;;3.33;100.00;97405.25;5122286;28;19959;-60
2022/11/20 00:31:20;;;;;;;;;;;;;;;3.15;100.00;97403.53;5123362;28;19970;-59
2022/11/20 00:33:47;;;;;;;;;;;;;;;3.02;100.00;97398.47;5121872;28;19967;-59
2022/11/20 00:36:14;;;;;;;;;;;;;;;3.05;100.00;97403.28;5119704;28;19970;-59
2022/11/20 00:38:41;;;;;;;;;;;;;;;3.37;100.00;97408.25;5119892;28;19939;-59
2022/11/20 00:41:09;;;;;;;;;;;;;;;3.66;100.00;97408.13;5122804;28;19923;-59
2022/11/20 00:43:36;;;;;;;;;;;;;;;3.84;100.00;97409.81;5104752;28;19962;-60
2022/11/20 00:46:03;;;;;;;;;;;;;;;3.99;100.00;97415.41;5119264;28;20017;-60
2022/11/20 00:48:30;;;;;;;;;;;;;;;4.01;100.00;97405.44;5119450;28;19982;-60
2022/11/20 00:50:56;;;;;;;;;;;;;;;4.12;100.00;97403.78;5122011;28;19959;-59
2022/11/20 00:53:23;;;;;;;;;;;;;;;4.20;100.00;97404.25;5116442;28;19966;-59
2022/11/20 00:55:56;;;;;;;;;;;;;;;3.86;100.00;97412.25;5119371;28;19924;-59
2022/11/20 00:58:24;;;;;;;;;;;;;;;4.14;100.00;97402.53;5119393;28;19931;-59
2022/11/20 01:00:50;;;;;;;;;;;;;;;4.15;100.00;97398.84;5120910;28;19959;-59
2022/11/20 01:03:17;;;;;;;;;;;;;;;3.89;100.00;97399.38;5122833;28;19987;-60
2022/11/20 01:05:43;;;;;;;;;;;;;;;3.87;100.00;97395.38;5121608;28;19943;-60
2022/11/20 01:08:09;;;;;;;;;;;;;;;4.08;100.00;97398.19;5119079;28;19924;-60
2022/11/20 01:10:36;;;;;;;;;;;;;;;4.01;100.00;97396.69;5119065;28;19949;-59
2022/11/20 01:15:47;;;;;;;;;;;;;;;3.50;100.00;97406.16;5121459;28;19923;-59
2022/11/20 01:18:13;;;;;;;;;;;;;;;3.77;100.00;97422.34;5119151;28;19930;-59
2022/11/20 01:20:40;;;;;;;;;;;;;;;3.56;100.00;97415.03;5118935;28;19934;-60
2022/11/20 01:23:06;;;;;;;;;;;;;;;3.36;100.00;97422.47;5118298;28;19960;-59
2022/11/20 01:25:32;;;;;;;;;;;;;;;3.53;100.00;97416.28;5117844;28;19993;-60
2022/11/20 01:27:59;;;;;;;;;;;;;;;3.39;100.00;97427.28;5119407;28;19932;-59
2022/11/20 01:30:25;;;;;;;;;;;;;;;3.48;100.00;97420.63;5118586;28;19998;-59
2022/11/20 01:32:53;;;;;;;;;;;;;;;3.37;100.00;97424.09;5120514;28;19928;-60
2022/11/20 01:35:19;;;;;;;;;;;;;;;3.40;100.00;97416.53;5122452;28;19966;-59
2022/11/20 01:37:45;;;;;;;;;;;;;;;3.60;100.00;97416.16;5121234;28;19967;-59
2022/11/20 01:40:12;;;;;;;;;;;;;;;3.62;100.00;97419.38;5118576;28;19999;-59
2022/11/20 01:45:41;;;;;;;;;;;;;;;3.59;100.00;97423.28;5121900;28;19930;-59
2022/11/20 01:48:08;;;;;;;;;;;;;;;3.32;100.00;97429.22;5118687;28;19924;-60
2022/11/20 01:50:37;;;;;;;;;;;;;;;3.28;100.00;97426.25;5117943;28;20409;-59
2022/11/20 01:53:06;;;;;;;;;;;;;;;3.46;100.00;97426.16;5113347;28;19920;-60
2022/11/20 01:55:35;;;;;;;;;;;;;;;3.63;100.00;97424.41;5117251;28;19924;-59
2022/11/20 01:58:02;;;;;;;;;;;;;;;3.92;100.00;97422.69;5118695;28;19924;-60
2022/11/20 02:00:28;;;;;;;;;;;;;;;3.74;100.00;97423.59;5118319;28;19987;-59
2022/11/20 02:02:57;;;;;;;;;;;;;;;3.42;100.00;97422.38;5120750;28;19950;-59
2022/11/20 02:05:29;;;;;;;;;;;;;;;3.62;100.00;97419.38;5121692;28;19966;-59
2022/11/20 02:07:56;;;;;;;;;;;;;;;3.74;100.00;97409.63;5119424;28;20544;-60
2022/11/20 02:10:23;;;;;;;;;;;;;;;3.87;100.00;97413.84;5118342;28;19956;-60
2022/11/20 02:15:34;;;;;;;;;;;;;;;3.57;100.00;97411.34;5121693;28;19923;-59
2022/11/20 02:18:00;;;;;;;;;;;;;;;3.89;100.00;97415.22;5118728;28;19950;-59
2022/11/20 02:20:28;;;;;;;;;;;;;;;4.06;100.00;97402.06;5099963;28;19924;-59
2022/11/20 02:22:57;;;;;;;;;;;;;;;4.01;100.00;97408.06;5117904;28;19996;-60
2022/11/20 02:25:25;;;;;;;;;;;;;;;4.08;100.00;97400.81;5115810;28;19955;-59
2022/11/20 02:27:51;;;;;;;;;;;;;;;3.91;100.00;97412.34;5119726;28;19995;-59
2022/11/20 02:30:18;;;;;;;;;;;;;;;4.15;100.00;97404.13;5118151;28;19988;-60
2022/11/20 02:32:44;;;;;;;;;;;;;;;4.16;100.00;97412.84;5120934;28;19951;-60
2022/11/20 02:35:31;;;;;;;;;;;;;;;4.29;100.00;97404.66;5126126;28;19979;-59
2022/11/20 02:37:59;;;;;;;;;;;;;;;4.39;100.00;97402.22;5122939;28;19928;-59
2022/11/20 02:40:27;;;;;;;;;;;;;;;4.47;100.00;97414.25;5104150;28;19931;-59
2022/11/20 02:42:53;;;;;;;;;;;;;;;4.50;100.00;97400.56;5124290;28;19943;-60
2022/11/20 02:45:20;;;;;;;;;;;;;;;4.53;100.00;97400.06;5125381;28;19999;-59
2022/11/20 02:47:46;;;;;;;;;;;;;;;4.55;100.00;97398.03;5124257;28;19924;-59
2022/11/20 02:50:12;;;;;;;;;;;;;;;4.55;100.00;97401.44;5122238;28;19928;-60
2022/11/20 02:52:39;;;;;;;;;;;;;;;4.60;100.00;97390.16;5121783;28;19934;-60
2022/11/20 02:55:06;;;;;;;;;;;;;;;4.48;100.00;97405.28;5117308;28;19977;-58
2022/11/20 02:57:33;;;;;;;;;;;;;;;4.21;100.00;97394.44;5125328;27;19991;-59
2022/11/20 03:00:00;;;;;;;;;;;;;;;4.13;100.00;97400.09;5122102;28;19931;-60
2022/11/20 03:02:26;;;;;;;;;;;;;;;4.18;100.00;97395.72;5121611;28;19924;-59
2022/11/20 03:04:52;;;;;;;;;;;;;;;4.27;100.00;97388.25;5123457;28;19924;-58
2022/11/20 03:07:19;;;;;;;;;;;;;;;4.37;100.00;97388.41;5125136;28;20124;-58
2022/11/20 03:09:45;;;;;;;;;;;;;;;4.47;100.00;97385.16;5124123;28;19923;-59
2022/11/20 03:12:11;;;;;;;;;;;;;;;4.38;100.00;97383.94;5121470;28;19974;-59
2022/11/20 03:14:39;;;;;;;;;;;;;;;4.17;100.00;97377.47;5121391;28;19963;-60
2022/11/20 03:17:05;;;;;;;;;;;;;;;4.05;100.00;97382.81;5112995;28;19920;-59
2022/11/20 03:19:32;;;;;;;;;;;;;;;4.20;100.00;97380.44;5112841;28;19935;-59
2022/11/20 03:21:59;;;;;;;;;;;;;;;4.35;100.00;97385.22;5112927;28;19931;-59
2022/11/20 03:24:26;;;;;;;;;;;;;;;4.42;100.00;97385.88;5112566;28;19924;-59
2022/11/20 03:26:52;;;;;;;;;;;;;;;4.46;100.00;97387.00;5123089;28;19924;-60
2022/11/20 03:29:19;;;;;;;;;;;;;;;4.52;100.00;97393.97;5124692;28;19987;-59
2022/11/20 03:31:46;;;;;;;;;;;;;;;4.39;100.00;97388.19;5123472;28;19988;-60
2022/11/20 03:34:13;;;;;;;;;;;;;;;4.00;100.00;97390.59;5120985;28;19954;-60
2022/11/20 03:36:40;;;;;;;;;;;;;;;4.05;100.00;97390.72;5120920;28;19930;-59
2022/11/20 03:39:06;;;;;;;;;;;;;;;4.11;100.00;97384.50;5124462;28;19958;-59
2022/11/20 03:41:36;;;;;;;;;;;;;;;3.90;100.00;97387.75;5124103;28;19927;-59
2022/11/20 03:44:04;;;;;;;;;;;;;;;3.64;100.00;97397.00;5119701;28;20014;-59
2022/11/20 03:46:30;;;;;;;;;;;;;;;3.79;100.00;97393.88;5120408;28;19974;-59
2022/11/20 03:48:58;;;;;;;;;;;;;;;3.83;100.00;97395.03;5123311;28;20019;-58
2022/11/20 03:51:25;;;;;;;;;;;;;;;4.04;100.00;97396.22;5124274;28;19988;-60
2022/11/20 03:53:53;;;;;;;;;;;;;;;3.68;100.00;97392.06;5113675;28;19931;-60
2022/11/20 03:56:21;;;;;;;;;;;;;;;3.68;100.00;97392.84;5120695;28;19963;-59
2022/11/20 03:58:47;;;;;;;;;;;;;;;3.86;100.00;97393.75;5103750;28;19924;-59
2022/11/20 04:01:16;;;;;;;;;;;;;;;4.02;100.00;97388.56;5124105;28;19999;-59
2022/11/20 04:03:43;;;;;;;;;;;;;;;4.14;100.00;97385.88;5123275;28;19927;-59
2022/11/20 04:06:12;;;;;;;;;;;;;;;4.26;100.00;97384.81;5120292;28;19960;-59
2022/11/20 04:08:38;;;;;;;;;;;;;;;4.35;100.00;97388.66;5120418;28;19983;-59
2022/11/20 04:11:12;;;;;;;;;;;;;;;4.40;100.00;97389.78;5120282;28;19963;-58
2022/11/20 04:13:38;;;;;;;;;;;;;;;4.43;100.00;97391.94;5120290;28;19991;-59
2022/11/20 04:16:05;;;;;;;;;;;;;;;4.43;100.00;97386.66;5120273;28;19959;-59
2022/11/20 04:18:31;;;;;;;;;;;;;;;4.39;100.00;97391.66;5120121;28;19956;-59
2022/11/20 04:20:58;;;;;;;;;;;;;;;4.29;100.00;97389.63;5122782;28;19987;-59
2022/11/20 04:23:26;;;;;;;;;;;;;;;3.90;100.00;97390.38;5116999;28;19987;-60
2022/11/20 04:25:52;;;;;;;;;;;;;;;3.90;100.00;97381.69;5119763;28;20011;-60
2022/11/20 04:28:18;;;;;;;;;;;;;;;3.69;100.00;97388.38;5119916;28;20019;-59
2022/11/20 04:30:45;;;;;;;;;;;;;;;3.49;100.00;97383.47;5120725;28;19950;-59
2022/11/20 04:33:11;;;;;;;;;;;;;;;3.64;100.00;97375.88;5123434;28;19958;-59
2022/11/20 04:35:38;;;;;;;;;;;;;;;3.72;100.00;97375.50;5123244;28;19997;-59
2022/11/20 04:38:05;;;;;;;;;;;;;;;3.67;100.00;97375.41;5111413;28;19983;-61
2022/11/20 04:40:32;;;;;;;;;;;;;;;3.73;100.00;97371.03;5111155;28;20042;-60
2022/11/20 04:42:59;;;;;;;;;;;;;;;3.99;100.00;97377.66;5111382;28;19960;-61
2022/11/20 04:45:25;;;;;;;;;;;;;;;3.77;100.00;97378.28;5111015;28;19924;-60
2022/11/20 04:47:51;;;;;;;;;;;;;;;3.58;100.00;97379.44;5111257;28;19999;-59
2022/11/20 04:50:18;;;;;;;;;;;;;;;3.36;100.00;97382.88;5111119;28;19924;-60
2022/11/20 04:52:44;;;;;;;;;;;;;;;3.13;100.00;97379.19;5111025;28;19925;-60
2022/11/20 04:55:10;;;;;;;;;;;;;;;3.22;100.00;97380.47;5115192;28;19928;-60
2022/11/20 04:57:38;;;;;;;;;;;;;;;3.34;100.00;97369.13;5122813;28;19923;-61
2022/11/20 05:00:05;;;;;;;;;;;;;;;3.25;100.00;97382.66;5123011;28;19979;-59
2022/11/20 05:02:31;;;;;;;;;;;;;;;3.37;100.00;97376.59;5122840;28;19966;-59
2022/11/20 05:04:58;;;;;;;;;;;;;;;2.91;100.00;97374.72;5120315;28;19995;-60
2022/11/20 05:07:24;;;;;;;;;;;;;;;3.26;100.00;97376.34;5119324;28;19956;-59
2022/11/20 05:09:50;;;;;;;;;;;;;;;3.50;100.00;97378.97;5120918;28;19982;-60
2022/11/20 05:12:17;;;;;;;;;;;;;;;3.29;100.00;97377.72;5122672;28;19987;-59
2022/11/20 05:14:44;;;;;;;;;;;;;;;3.38;100.00;97364.97;5121946;28;19955;-58
2022/11/20 05:17:11;;;;;;;;;;;;;;;3.26;100.00;97368.44;5118978;28;20015;-60
2022/11/20 05:19:37;;;;;;;;;;;;;;;3.22;100.00;97375.19;5118895;28;19950;-60
2022/11/20 05:22:05;;;;;;;;;;;;;;;3.04;100.00;97364.75;5119059;28;19983;-60
2022/11/20 05:24:31;;;;;;;;;;;;;;;3.17;100.00;97374.28;5110571;28;19987;-59
2022/11/20 05:26:58;;;;;;;;;;;;;;;2.92;100.00;97371.84;5121570;28;20343;-59
2022/11/20 05:29:24;;;;;;;;;;;;;;;2.99;100.00;97377.00;5122336;28;19924;-60
2022/11/20 05:31:52;;;;;;;;;;;;;;;2.82;100.00;97379.50;5120534;28;19949;-58
2022/11/20 05:34:18;;;;;;;;;;;;;;;2.84;100.00;97374.00;5118757;28;20526;-60
2022/11/20 05:36:44;;;;;;;;;;;;;;;3.00;100.00;97371.50;5119227;28;20023;-59
2022/11/20 05:39:10;;;;;;;;;;;;;;;2.94;100.00;97371.63;5122208;28;19999;-60
2022/11/20 05:41:37;;;;;;;;;;;;;;;2.95;100.00;97379.31;5122113;28;19934;-60
2022/11/20 05:44:03;;;;;;;;;;;;;;;2.89;100.00;97377.56;5118833;28;19934;-59
2022/11/20 05:46:29;;;;;;;;;;;;;;;2.89;100.00;97380.22;5118486;28;19931;-60
2022/11/20 05:48:58;;;;;;;;;;;;;;;2.91;100.00;97369.44;5121014;28;19930;-59
2022/11/20 05:51:25;;;;;;;;;;;;;;;2.84;100.00;97377.47;5121962;28;19924;-59
2022/11/20 05:53:51;;;;;;;;;;;;;;;2.83;100.00;97372.41;5111838;28;19939;-60
2022/11/20 05:56:19;;;;;;;;;;;;;;;2.77;100.00;97368.84;5118598;28;19950;-58
2022/11/20 05:58:45;;;;;;;;;;;;;;;3.09;100.00;97367.53;5119135;28;19925;-60
2022/11/20 06:01:13;;;;;;;;;;;;;;;3.04;100.00;97369.22;5121797;28;19924;-60
2022/11/20 06:03:40;;;;;;;;;;;;;;;2.91;100.00;97372.88;5121696;28;20030;-59
2022/11/20 06:06:07;;;;;;;;;;;;;;;3.03;100.00;97368.41;5118074;28;19924;-59
2022/11/20 06:08:34;;;;;;;;;;;;;;;2.92;100.00;97376.31;5117800;28;19967;-59
2022/11/20 06:11:04;;;;;;;;;;;;;;;3.23;100.00;97376.00;5103153;28;19963;-59
2022/11/20 06:13:30;;;;;;;;;;;;;;;3.73;100.00;97379.75;5121619;28;19947;-59
2022/11/20 06:15:56;;;;;;;;;;;;;;;3.49;100.00;97380.03;5119115;28;19923;-59
2022/11/20 06:18:23;;;;;;;;;;;;;;;3.51;100.00;97377.94;5118191;28;19924;-59
2022/11/20 06:20:49;;;;;;;;;;;;;;;3.15;100.00;97376.34;5119470;28;19959;-59
2022/11/20 06:23:17;;;;;;;;;;;;;;;2.90;100.00;97368.63;5116347;28;20583;-59
2022/11/20 06:25:44;;;;;;;;;;;;;;;2.87;100.00;97369.09;5117905;28;19935;-60
2022/11/20 06:28:10;;;;;;;;;;;;;;;3.18;100.00;97367.97;5118136;28;19971;-59
2022/11/20 06:30:37;;;;;;;;;;;;;;;3.62;100.00;97372.63;5118156;28;19980;-60
2022/11/20 06:33:04;;;;;;;;;;;;;;;3.82;100.00;97372.28;5121586;28;19975;-60
2022/11/20 06:35:30;;;;;;;;;;;;;;;3.62;100.00;97369.22;5121332;28;19992;-60
2022/11/20 06:37:57;;;;;;;;;;;;;;;3.18;100.00;97371.41;5119151;28;19974;-59
2022/11/20 06:40:24;;;;;;;;;;;;;;;3.06;100.00;97370.63;5117754;28;19924;-60
2022/11/20 06:42:50;;;;;;;;;;;;;;;3.09;100.00;97367.53;5119346;28;19991;-61
2022/11/20 06:45:17;;;;;;;;;;;;;;;3.12;100.00;97372.34;5121425;28;19924;-59
2022/11/20 06:47:43;;;;;;;;;;;;;;;3.00;100.00;97378.63;5120586;28;19970;-60
2022/11/20 06:50:10;;;;;;;;;;;;;;;3.13;100.00;97379.19;5117729;28;20078;-59
2022/11/20 06:52:36;;;;;;;;;;;;;;;3.36;100.00;97380.25;5117570;28;19967;-59
2022/11/20 06:55:03;;;;;;;;;;;;;;;3.40;100.00;97384.84;5094461;28;19973;-59
2022/11/20 06:57:30;;;;;;;;;;;;;;;3.12;100.00;97393.44;5120928;28;19962;-59
2022/11/20 06:59:57;;;;;;;;;;;;;;;3.21;100.00;97381.53;5118554;28;19955;-60
2022/11/20 07:02:23;;;;;;;;;;;;;;;2.97;100.00;97389.63;5117569;28;20557;-60
2022/11/20 07:04:49;;;;;;;;;;;;;;;3.09;100.00;97378.06;5118791;28;19971;-60
2022/11/20 07:07:16;;;;;;;;;;;;;;;3.19;100.00;97383.56;5120980;28;19919;-60
2022/11/20 07:09:42;;;;;;;;;;;;;;;3.28;100.00;97391.94;5120501;28;19995;-59
2022/11/20 07:12:08;;;;;;;;;;;;;;;3.26;100.00;97384.25;5117337;28;19987;-60
2022/11/20 07:14:37;;;;;;;;;;;;;;;3.26;100.00;97386.09;5117377;28;19931;-59
2022/11/20 07:17:03;;;;;;;;;;;;;;;3.41;100.00;97385.63;5120689;28;19978;-60
2022/11/20 07:19:29;;;;;;;;;;;;;;;3.58;100.00;97389.19;5123879;28;19984;-60
2022/11/20 07:21:56;;;;;;;;;;;;;;;3.51;100.00;97391.13;5122311;28;19987;-59
2022/11/20 07:24:22;;;;;;;;;;;;;;;3.48;100.00;97376.56;5112697;28;19982;-61
2022/11/20 07:26:48;;;;;;;;;;;;;;;3.48;100.00;97386.31;5122277;28;19995;-60
2022/11/20 07:29:16;;;;;;;;;;;;;;;3.40;100.00;97384.03;5124655;28;19928;-59
2022/11/20 07:31:44;;;;;;;;;;;;;;;3.55;100.00;97376.44;5124050;28;19932;-59
2022/11/20 07:34:10;;;;;;;;;;;;;;;3.53;100.00;97379.31;5121102;28;20033;-60
2022/11/20 07:36:36;;;;;;;;;;;;;;;3.47;100.00;97390.78;5122803;28;19963;-59
2022/11/20 07:39:03;;;;;;;;;;;;;;;3.34;100.00;97388.41;5124082;28;19923;-60
2022/11/20 07:41:29;;;;;;;;;;;;;;;3.22;100.00;97380.47;5124090;28;19991;-59
2022/11/20 07:43:55;;;;;;;;;;;;;;;3.25;100.00;97385.28;5121694;28;19923;-59
2022/11/20 07:46:22;;;;;;;;;;;;;;;3.26;100.00;97383.44;5120256;28;19943;-60
2022/11/20 07:48:49;;;;;;;;;;;;;;;3.22;100.00;97377.81;5121766;28;19950;-60
2022/11/20 07:51:16;;;;;;;;;;;;;;;3.30;100.00;97384.59;5124180;28;20022;-60
2022/11/20 07:53:42;;;;;;;;;;;;;;;3.26;100.00;97386.09;5115054;28;19995;-59
2022/11/20 07:56:09;;;;;;;;;;;;;;;3.40;100.00;97389.31;5120802;28;19920;-59
2022/11/20 07:58:35;;;;;;;;;;;;;;;3.37;100.00;97389.78;5120392;28;19992;-62
2022/11/20 08:01:05;;;;;;;;;;;;;;;3.31;100.00;97393.34;5122758;28;20524;-60
2022/11/20 08:03:31;;;;;;;;;;;;;;;3.36;100.00;97396.88;5124748;28;19930;-60
2022/11/20 08:06:01;;;;;;;;;;;;;;;3.33;100.00;97399.19;5122620;28;19924;-62
2022/11/20 08:08:28;;;;;;;;;;;;;;;3.41;100.00;97396.19;5123544;28;20000;-60
2022/11/20 08:14:11;;;;;;;;;;;;;;;3.37;100.00;97389.78;5121472;28;19984;-60
2022/11/20 08:16:25;;;;;;;;;;;;;;;3.42;100.00;97392.53;5123282;28;19941;-60
2022/11/20 08:18:51;;;;;;;;;;;;;;;3.47;100.00;97393.44;5103453;28;19992;-60
2022/11/20 08:21:19;;;;;;;;;;;;;;;3.66;100.00;97383.53;5119879;28;19969;-59
2022/11/20 08:23:45;;;;;;;;;;;;;;;3.73;100.00;97389.50;5114395;28;20016;-59
2022/11/20 08:26:11;;;;;;;;;;;;;;;3.83;100.00;97389.75;5119721;28;19979;-59
2022/11/20 08:28:38;;;;;;;;;;;;;;;3.92;100.00;97385.69;5119866;28;19920;-58
2022/11/20 08:31:05;;;;;;;;;;;;;;;4.05;100.00;97388.09;5110229;28;19928;-59
2022/11/20 08:33:32;;;;;;;;;;;;;;;4.13;100.00;97390.34;5110833;28;19935;-60
2022/11/20 08:36:02;;;;;;;;;;;;;;;4.22;100.00;97377.56;5111301;28;19981;-59
2022/11/20 08:38:30;;;;;;;;;;;;;;;4.11;100.00;97379.22;5111153;28;19970;-59
2022/11/20 08:43:37;;;;;;;;;;;;;;;4.02;100.00;97388.56;5097612;28;19930;-59
2022/11/20 08:46:03;;;;;;;;;;;;;;;4.05;100.00;97385.44;5122686;28;20017;-60
2022/11/20 08:48:30;;;;;;;;;;;;;;;4.00;100.00;97400.38;5123006;28;19947;-59
2022/11/20 08:50:58;;;;;;;;;;;;;;;4.00;100.00;97393.25;5120841;28;19995;-59
2022/11/20 08:53:24;;;;;;;;;;;;;;;4.02;100.00;97388.56;5113914;28;19983;-59
2022/11/20 08:55:52;;;;;;;;;;;;;;;4.05;100.00;97390.72;5119422;28;19979;-59
2022/11/20 08:58:18;;;;;;;;;;;;;;;4.08;100.00;97392.91;5119214;28;19970;-61
2022/11/20 09:00:45;;;;;;;;;;;;;;;4.15;100.00;97393.53;5119604;28;20343;-61
2022/11/20 09:03:13;;;;;;;;;;;;;;;4.12;100.00;97393.22;5122924;28;19962;-59
2022/11/20 09:05:39;;;;;;;;;;;;;;;4.10;100.00;97398.75;5122823;28;19935;-60
2022/11/20 09:08:05;;;;;;;;;;;;;;;4.13;100.00;97395.63;5110372;28;19999;-59
2022/11/20 09:10:32;;;;;;;;;;;;;;;4.09;100.00;97386.56;5110510;28;19964;-60
2022/11/20 09:12:59;;;;;;;;;;;;;;;4.06;100.00;97394.94;5110752;28;19991;-59
2022/11/20 09:15:26;;;;;;;;;;;;;;;4.11;100.00;97397.72;5110519;28;19930;-60
2022/11/20 09:17:53;;;;;;;;;;;;;;;4.18;100.00;97387.00;5110718;28;19924;-59
2022/11/20 09:20:19;;;;;;;;;;;;;;;4.19;100.00;97389.41;5110676;28;19955;-60
2022/11/20 09:22:45;;;;;;;;;;;;;;;4.24;100.00;97397.44;5110278;28;19956;-60
2022/11/20 09:25:12;;;;;;;;;;;;;;;4.16;100.00;97387.25;5114992;28;19987;-61
2022/11/20 09:27:38;;;;;;;;;;;;;;;4.22;100.00;97394.22;5122056;28;19979;-59
2022/11/20 09:30:06;;;;;;;;;;;;;;;4.30;100.00;97382.50;5118460;28;19984;-59
2022/11/20 09:32:33;;;;;;;;;;;;;;;4.34;100.00;97381.78;5118444;28;19987;-59
2022/11/20 09:34:59;;;;;;;;;;;;;;;4.30;100.00;97383.25;5121124;28;19938;-60
2022/11/20 09:37:26;;;;;;;;;;;;;;;4.46;100.00;97386.19;5121849;28;20007;-59
2022/11/20 09:39:52;;;;;;;;;;;;;;;4.52;100.00;97385.28;5119839;28;19962;-59
2022/11/20 09:42:26;;;;;;;;;;;;;;;4.60;100.00;97384.88;5117375;28;19925;-61
2022/11/20 09:45:02;;;;;;;;;;;;;;;4.67;100.00;97380.25;5119993;28;19975;-61
2022/11/20 09:47:36;;;;;;;;;;;;;;;4.70;100.00;97385.06;5121501;28;19937;-60
2022/11/20 09:50:12;;;;;;;;;;;;;;;4.38;100.00;97384.75;5118265;28;19924;-60
2022/11/20 09:52:43;;;;;;;;;;;;;;;4.72;100.00;97375.84;5117956;28;19939;-59
2022/11/20 09:55:11;;;;;;;;;;;;;;;4.78;100.00;97382.03;5118053;28;19978;-61
2022/11/20 09:57:39;;;;;;;;;;;;;;;4.71;100.00;97382.16;5117687;28;19924;-59
2022/11/20 10:00:06;;;;;;;;;;;;;;;4.64;100.00;97378.88;5109467;28;20006;-59
2022/11/20 10:02:38;;;;;;;;;;;;;;;4.57;100.00;97388.00;5109370;28;19931;-60
2022/11/20 10:05:07;;;;;;;;;;;;;;;4.75;100.00;97379.84;5109070;28;19991;-60
2022/11/20 10:07:37;;;;;;;;;;;;;;;4.58;100.00;97377.16;5109172;28;19980;-59
2022/11/20 10:10:03;;;;;;;;;;;;;;;4.67;100.00;97374.97;5109315;28;19987;-60
2022/11/20 10:12:35;;;;;;;;;;;;;;;4.78;100.00;97372.25;5109060;28;19995;-59
2022/11/20 10:15:11;;;;;;;;;;;;;;;4.75;100.00;97371.91;5109003;28;19924;-60
2022/11/20 10:18:00;;;;;;;;;;;;;;;4.85;100.00;97364.97;5109232;28;20042;-59
2022/11/20 10:20:30;;;;;;;;;;;;;;;4.82;100.00;97368.09;5109013;28;19987;-60
2022/11/20 10:23:12;;;;;;;;;;;;;;;4.92;100.00;97372.72;5094097;28;19950;-59
2022/11/20 10:25:40;;;;;;;;;;;;;;;4.95;100.00;97356.41;5117368;28;19956;-60
2022/11/20 10:28:25;;;;;;;;;;;;;;;4.84;100.00;97363.34;5117670;28;20526;-61
2022/11/20 10:30:56;;;;;;;;;;;;;;;4.84;100.00;97362.56;5119219;28;19939;-60
2022/11/20 10:33:25;;;;;;;;;;;;;;;5.03;100.00;97363.94;5120966;28;19983;-60
2022/11/20 10:35:53;;;;;;;;;;;;;;;4.99;100.00;97362.78;5119523;28;19984;-61
2022/11/20 10:38:22;;;;;;;;;;;;;;;5.02;100.00;97349.06;5117581;28;20022;-61
2022/11/20 10:40:50;;;;;;;;;;;;;;;5.09;100.00;97357.66;5118646;28;19963;-62
2022/11/20 10:43:18;;;;;;;;;;;;;;;5.10;100.00;97351.34;5121186;28;19955;-60
2022/11/20 10:45:48;;;;;;;;;;;;;;;5.10;100.00;97359.28;5120132;28;20396;-60
2022/11/20 10:48:20;;;;;;;;;;;;;;;4.98;100.00;97347.97;5117339;28;19963;-59
2022/11/20 10:51:04;;;;;;;;;;;;;;;4.95;100.00;97359.03;5118381;28;19924;-60
2022/11/20 10:53:37;;;;;;;;;;;;;;;4.78;100.00;97355.56;5115185;28;19924;-60
2022/11/20 10:56:06;;;;;;;;;;;;;;;4.90;100.00;97348.34;5121218;28;19952;-62
2022/11/20 10:58:39;;;;;;;;;;;;;;;4.95;100.00;97343.16;5121281;28;20345;-61
2022/11/20 11:01:06;;;;;;;;;;;;;;;5.13;100.00;97350.06;5113070;28;19995;-60
2022/11/20 11:03:32;;;;;;;;;;;;;;;4.99;100.00;97343.47;5112549;28;19985;-61
2022/11/20 11:06:04;;;;;;;;;;;;;;;5.04;100.00;97341.72;5112919;28;19998;-60
2022/11/20 11:08:35;;;;;;;;;;;;;;;4.98;100.00;97334.75;5112957;28;19931;-61
2022/11/20 11:11:05;;;;;;;;;;;;;;;4.87;100.00;97340.91;5112702;28;19925;-61
2022/11/20 11:13:31;;;;;;;;;;;;;;;5.02;100.00;97341.13;5112808;28;19924;-61
2022/11/20 11:15:58;;;;;;;;;;;;;;;4.90;100.00;97333.28;5112489;28;19932;-60
2022/11/20 11:18:25;;;;;;;;;;;;;;;5.11;100.00;97344.19;5112467;28;20015;-62
2022/11/20 11:20:52;;;;;;;;;;;;;;;4.90;100.00;97337.78;5101094;28;20018;-61
2022/11/20 11:23:28;;;;;;;;;;;;;;;4.92;100.00;97340.97;5099771;28;19988;-60
2022/11/20 11:25:58;;;;;;;;;;;;;;;4.95;100.00;97332.59;5112431;28;19995;-59
2022/11/20 11:28:27;;;;;;;;;;;;;;;4.90;100.00;97332.47;5120659;28;19921;-61
2022/11/20 11:30:54;;;;;;;;;;;;;;;5.08;100.00;97326.94;5122672;28;19924;-60
2022/11/20 11:33:21;;;;;;;;;;;;;;;5.08;100.00;97329.59;5106184;28;19983;-60
2022/11/20 11:35:48;;;;;;;;;;;;;;;5.01;100.00;97320.22;5123164;28;19987;-60
2022/11/20 11:38:16;;;;;;;;;;;;;;;4.94;100.00;97316.94;5120474;28;19955;-60
2022/11/20 11:40:45;;;;;;;;;;;;;;;5.11;100.00;97323.81;5120818;28;19962;-60
2022/11/20 11:45:58;;;;;;;;;;;;;;;5.15;100.00;97319.66;5120233;28;19924;-61
2022/11/20 11:48:25;;;;;;;;;;;;;;;5.07;100.00;97317.41;5120386;28;20431;-61
2022/11/20 11:50:51;;;;;;;;;;;;;;;5.12;100.00;97314.84;5121898;28;19946;-63
2022/11/20 11:53:19;;;;;;;;;;;;;;;5.29;100.00;97312.94;5118071;28;19932;-60
2022/11/20 11:55:50;;;;;;;;;;;;;;;5.29;100.00;97318.25;5120129;28;19939;-60
2022/11/20 11:58:25;;;;;;;;;;;;;;;5.18;100.00;97313.88;5119958;28;19924;-60
2022/11/20 12:00:55;;;;;;;;;;;;;;;5.25;100.00;97311.84;5121342;28;19986;-60
2022/11/20 12:03:25;;;;;;;;;;;;;;;5.10;100.00;97321.41;5123532;28;19924;-59
2022/11/20 12:05:56;;;;;;;;;;;;;;;5.08;100.00;97303.13;5120766;28;19927;-60
2022/11/20 12:08:25;;;;;;;;;;;;;;;5.09;100.00;97310.03;5119836;28;19924;-60
2022/11/20 12:10:55;;;;;;;;;;;;;;;5.30;100.00;97313.75;5121369;28;19991;-60
2022/11/20 12:13:26;;;;;;;;;;;;;;;5.44;100.00;97313.19;5123258;28;20014;-60
2022/11/20 12:15:54;;;;;;;;;;;;;;;5.34;100.00;97315.69;5124397;28;19945;-59
2022/11/20 12:18:21;;;;;;;;;;;;;;;5.16;100.00;97310.66;5119596;28;19967;-60
2022/11/20 12:20:54;;;;;;;;;;;;;;;5.28;100.00;97314.03;5120754;28;19968;-60
2022/11/20 12:23:27;;;;;;;;;;;;;;;5.20;100.00;97301.19;5117267;28;20378;-60
2022/11/20 12:25:57;;;;;;;;;;;;;;;5.20;100.00;97295.88;5119626;28;19924;-62
2022/11/20 12:28:37;;;;;;;;;;;;;;;5.31;100.00;97291.53;5119929;28;19934;-59
2022/11/20 12:31:14;;;;;;;;;;;;;;;5.37;100.00;97296.66;5122951;28;19924;-60
2022/11/20 12:33:50;;;;;;;;;;;;;;;5.38;100.00;97297.47;5122757;28;19924;-61
2022/11/20 12:36:22;;;;;;;;;;;;;;;5.23;100.00;97289.31;5119615;28;19960;-60
2022/11/20 12:39:02;;;;;;;;;;;;;;;5.29;100.00;97297.06;5102647;28;20200;-60
2022/11/20 12:47:21;;;;;;;;;;;;;;;5.36;100.00;97291.59;5119298;28;19946;-61
2022/11/20 12:49:53;;;;;;;;;;;;;;;5.24;100.00;97297.00;5119676;28;20003;-61
2022/11/20 12:52:23;;;;;;;;;;;;;;;5.50;100.00;97295.50;5119902;28;19990;-60
2022/11/20 12:55:05;;;;;;;;;;;;;;;5.36;100.00;97289.75;5093634;28;19934;-60
2022/11/20 12:57:40;;;;;;;;;;;;;;;5.26;100.00;97283.53;5122263;28;20059;-60
2022/11/20 13:00:13;;;;;;;;;;;;;;;5.29;100.00;97283.84;5110563;28;19963;-60
2022/11/20 13:02:59;;;;;;;;;;;;;;;5.44;100.00;97278.78;5110410;28;19924;-61
2022/11/20 13:05:32;;;;;;;;;;;;;;;5.60;100.00;97278.94;5118764;28;19991;-60
2022/11/20 13:07:58;;;;;;;;;;;;;;;5.31;100.00;97280.97;5121312;28;19963;-62
2022/11/20 13:10:32;;;;;;;;;;;;;;;5.41;100.00;97287.19;5122213;28;20050;-62
2022/11/20 13:13:03;;;;;;;;;;;;;;;5.49;100.00;97282.50;5119886;28;19962;-60
2022/11/20 13:15:47;;;;;;;;;;;;;;;5.45;100.00;97283.00;5118639;28;19976;-60